sensor_id;sensor_type;location;lat;lon;timestamp;P1;durP1;ratioP1;P2;durP2;ratioP2
29120;SDS011;16191;49.548;8.658;2022-12-18T00:02:12;94.00;;;39.15;;
29120;SDS011;16191;49.548;8.658;2022-12-18T00:04:39;92.35;;;40.20;;
29120;SDS011;16191;49.548;8.658;2022-12-18T00:07:06;97.22;;;37.13;;
29120;SDS011;16191;49.548;8.658;2022-12-18T00:09:32;87.18;;;34.88;;
29120;SDS011;16191;49.548;8.658;2022-12-18T00:12:06;89.70;;;35.95;;
29120;SDS011;16191;49.548;8.658;2022-12-18T00:14:41;96.93;;;36.35;;
29120;SDS011;16191;49.548;8.658;2022-12-18T00:17:10;90.10;;;34.60;;
29120;SDS011;16191;49.548;8.658;2022-12-18T00:19:38;96.22;;;35.47;;
29120;SDS011;16191;49.548;8.658;2022-12-18T00:22:04;94.78;;;35.92;;
29120;SDS011;16191;49.548;8.658;2022-12-18T00:24:32;95.70;;;36.03;;
29120;SDS011;16191;49.548;8.658;2022-12-18T00:26:59;92.38;;;35.55;;
29120;SDS011;16191;49.548;8.658;2022-12-18T00:29:25;85.97;;;35.22;;
29120;SDS011;16191;49.548;8.658;2022-12-18T00:31:52;91.40;;;33.97;;
29120;SDS011;16191;49.548;8.658;2022-12-18T00:34:19;90.72;;;32.50;;
29120;SDS011;16191;49.548;8.658;2022-12-18T00:36:46;94.60;;;35.15;;
29120;SDS011;16191;49.548;8.658;2022-12-18T00:39:13;83.78;;;33.78;;
29120;SDS011;16191;49.548;8.658;2022-12-18T00:41:43;82.67;;;34.13;;
29120;SDS011;16191;49.548;8.658;2022-12-18T00:44:29;101.47;;;38.58;;
29120;SDS011;16191;49.548;8.658;2022-12-18T00:46:56;100.00;;;38.40;;
29120;SDS011;16191;49.548;8.658;2022-12-18T00:49:23;93.68;;;37.00;;
29120;SDS011;16191;49.548;8.658;2022-12-18T00:51:50;100.60;;;35.92;;
29120;SDS011;16191;49.548;8.658;2022-12-18T00:54:17;102.82;;;38.55;;
29120;SDS011;16191;49.548;8.658;2022-12-18T00:56:44;100.03;;;35.97;;
29120;SDS011;16191;49.548;8.658;2022-12-18T00:59:15;90.35;;;35.05;;
29120;SDS011;16191;49.548;8.658;2022-12-18T01:01:43;90.07;;;35.83;;
29120;SDS011;16191;49.548;8.658;2022-12-18T01:04:11;95.05;;;35.75;;
29120;SDS011;16191;49.548;8.658;2022-12-18T01:06:38;88.97;;;34.25;;
29120;SDS011;16191;49.548;8.658;2022-12-18T01:09:05;88.20;;;35.72;;
29120;SDS011;16191;49.548;8.658;2022-12-18T01:11:35;93.15;;;34.97;;
29120;SDS011;16191;49.548;8.658;2022-12-18T01:14:03;98.70;;;36.40;;
29120;SDS011;16191;49.548;8.658;2022-12-18T01:16:30;98.63;;;38.00;;
29120;SDS011;16191;49.548;8.658;2022-12-18T01:18:57;95.40;;;36.38;;
29120;SDS011;16191;49.548;8.658;2022-12-18T01:21:26;96.00;;;37.60;;
29120;SDS011;16191;49.548;8.658;2022-12-18T01:23:53;94.95;;;36.72;;
29120;SDS011;16191;49.548;8.658;2022-12-18T01:26:22;96.72;;;36.70;;
29120;SDS011;16191;49.548;8.658;2022-12-18T01:29:09;94.80;;;36.95;;
29120;SDS011;16191;49.548;8.658;2022-12-18T01:31:56;99.47;;;37.85;;
29120;SDS011;16191;49.548;8.658;2022-12-18T01:34:43;93.80;;;35.00;;
29120;SDS011;16191;49.548;8.658;2022-12-18T01:37:29;90.20;;;37.88;;
29120;SDS011;16191;49.548;8.658;2022-12-18T01:40:16;96.25;;;37.05;;
29120;SDS011;16191;49.548;8.658;2022-12-18T01:43:03;84.00;;;34.88;;
29120;SDS011;16191;49.548;8.658;2022-12-18T01:45:31;102.65;;;35.88;;
29120;SDS011;16191;49.548;8.658;2022-12-18T01:48:02;93.95;;;35.53;;
29120;SDS011;16191;49.548;8.658;2022-12-18T01:50:34;86.47;;;34.17;;
29120;SDS011;16191;49.548;8.658;2022-12-18T01:53:07;98.43;;;37.50;;
29120;SDS011;16191;49.548;8.658;2022-12-18T01:55:39;87.32;;;34.58;;
29120;SDS011;16191;49.548;8.658;2022-12-18T01:58:09;87.40;;;36.20;;
29120;SDS011;16191;49.548;8.658;2022-12-18T02:00:36;83.00;;;33.05;;
29120;SDS011;16191;49.548;8.658;2022-12-18T02:03:02;85.90;;;33.45;;
29120;SDS011;16191;49.548;8.658;2022-12-18T02:05:35;90.90;;;35.78;;
29120;SDS011;16191;49.548;8.658;2022-12-18T02:08:30;81.40;;;31.95;;
29120;SDS011;16191;49.548;8.658;2022-12-18T02:11:09;80.20;;;31.20;;
29120;SDS011;16191;49.548;8.658;2022-12-18T02:13:53;84.93;;;33.30;;
29120;SDS011;16191;49.548;8.658;2022-12-18T02:19:26;84.90;;;32.00;;
29120;SDS011;16191;49.548;8.658;2022-12-18T02:25:18;87.95;;;32.70;;
29120;SDS011;16191;49.548;8.658;2022-12-18T02:27:54;77.05;;;31.02;;
29120;SDS011;16191;49.548;8.658;2022-12-18T02:30:24;84.38;;;30.08;;
29120;SDS011;16191;49.548;8.658;2022-12-18T02:32:53;87.32;;;34.40;;
29120;SDS011;16191;49.548;8.658;2022-12-18T02:35:23;88.43;;;32.90;;
29120;SDS011;16191;49.548;8.658;2022-12-18T02:37:54;89.80;;;32.88;;
29120;SDS011;16191;49.548;8.658;2022-12-18T02:40:23;89.60;;;34.88;;
29120;SDS011;16191;49.548;8.658;2022-12-18T02:42:52;95.13;;;34.17;;
29120;SDS011;16191;49.548;8.658;2022-12-18T02:45:19;89.40;;;33.40;;
29120;SDS011;16191;49.548;8.658;2022-12-18T02:47:48;87.85;;;35.17;;
29120;SDS011;16191;49.548;8.658;2022-12-18T02:50:35;97.28;;;35.63;;
29120;SDS011;16191;49.548;8.658;2022-12-18T02:53:14;91.72;;;33.63;;
29120;SDS011;16191;49.548;8.658;2022-12-18T02:56:10;95.00;;;34.15;;
29120;SDS011;16191;49.548;8.658;2022-12-18T02:58:54;91.40;;;32.50;;
29120;SDS011;16191;49.548;8.658;2022-12-18T03:04:20;84.20;;;32.33;;
29120;SDS011;16191;49.548;8.658;2022-12-18T03:06:56;86.30;;;36.55;;
29120;SDS011;16191;49.548;8.658;2022-12-18T03:09:31;89.28;;;36.55;;
29120;SDS011;16191;49.548;8.658;2022-12-18T03:12:10;92.40;;;36.22;;
29120;SDS011;16191;49.548;8.658;2022-12-18T03:15:04;80.60;;;33.13;;
29120;SDS011;16191;49.548;8.658;2022-12-18T03:17:52;88.88;;;33.22;;
29120;SDS011;16191;49.548;8.658;2022-12-18T03:20:26;80.97;;;31.52;;
29120;SDS011;16191;49.548;8.658;2022-12-18T03:22:59;90.38;;;32.88;;
29120;SDS011;16191;49.548;8.658;2022-12-18T03:25:37;84.75;;;32.47;;
29120;SDS011;16191;49.548;8.658;2022-12-18T03:28:07;84.95;;;34.53;;
29120;SDS011;16191;49.548;8.658;2022-12-18T03:30:39;88.57;;;32.33;;
29120;SDS011;16191;49.548;8.658;2022-12-18T03:33:16;86.10;;;33.47;;
29120;SDS011;16191;49.548;8.658;2022-12-18T03:35:48;96.95;;;34.95;;
29120;SDS011;16191;49.548;8.658;2022-12-18T03:38:16;81.22;;;30.48;;
29120;SDS011;16191;49.548;8.658;2022-12-18T03:46:03;84.85;;;33.42;;
29120;SDS011;16191;49.548;8.658;2022-12-18T03:48:37;86.60;;;33.90;;
29120;SDS011;16191;49.548;8.658;2022-12-18T03:51:33;86.53;;;33.40;;
29120;SDS011;16191;49.548;8.658;2022-12-18T03:54:03;86.95;;;31.50;;
29120;SDS011;16191;49.548;8.658;2022-12-18T03:56:42;94.32;;;35.35;;
29120;SDS011;16191;49.548;8.658;2022-12-18T03:59:13;87.05;;;32.67;;
29120;SDS011;16191;49.548;8.658;2022-12-18T04:01:45;96.57;;;34.60;;
29120;SDS011;16191;49.548;8.658;2022-12-18T04:04:15;86.40;;;33.28;;
29120;SDS011;16191;49.548;8.658;2022-12-18T04:06:45;81.50;;;31.05;;
29120;SDS011;16191;49.548;8.658;2022-12-18T04:09:16;87.60;;;33.33;;
29120;SDS011;16191;49.548;8.658;2022-12-18T04:11:45;81.37;;;34.90;;
29120;SDS011;16191;49.548;8.658;2022-12-18T04:14:15;81.15;;;33.50;;
29120;SDS011;16191;49.548;8.658;2022-12-18T04:16:48;84.13;;;32.90;;
29120;SDS011;16191;49.548;8.658;2022-12-18T04:19:16;84.60;;;34.75;;
29120;SDS011;16191;49.548;8.658;2022-12-18T04:21:46;93.30;;;33.60;;
29120;SDS011;16191;49.548;8.658;2022-12-18T04:24:13;85.15;;;34.50;;
29120;SDS011;16191;49.548;8.658;2022-12-18T04:26:49;88.38;;;31.33;;
29120;SDS011;16191;49.548;8.658;2022-12-18T04:29:21;84.70;;;31.80;;
29120;SDS011;16191;49.548;8.658;2022-12-18T04:31:47;74.97;;;29.88;;
29120;SDS011;16191;49.548;8.658;2022-12-18T04:34:15;76.70;;;31.63;;
29120;SDS011;16191;49.548;8.658;2022-12-18T04:36:47;94.47;;;34.55;;
29120;SDS011;16191;49.548;8.658;2022-12-18T04:39:18;87.28;;;33.60;;
29120;SDS011;16191;49.548;8.658;2022-12-18T04:41:47;86.95;;;33.55;;
29120;SDS011;16191;49.548;8.658;2022-12-18T04:44:14;83.60;;;33.55;;
29120;SDS011;16191;49.548;8.658;2022-12-18T04:46:41;81.82;;;31.70;;
29120;SDS011;16191;49.548;8.658;2022-12-18T04:49:09;82.53;;;31.25;;
29120;SDS011;16191;49.548;8.658;2022-12-18T04:51:37;96.95;;;34.63;;
29120;SDS011;16191;49.548;8.658;2022-12-18T04:54:03;80.90;;;31.02;;
29120;SDS011;16191;49.548;8.658;2022-12-18T04:56:31;87.35;;;34.80;;
29120;SDS011;16191;49.548;8.658;2022-12-18T04:58:58;88.38;;;33.85;;
29120;SDS011;16191;49.548;8.658;2022-12-18T05:01:25;86.05;;;31.33;;
29120;SDS011;16191;49.548;8.658;2022-12-18T05:04:00;74.00;;;30.33;;
29120;SDS011;16191;49.548;8.658;2022-12-18T05:06:27;86.25;;;32.10;;
29120;SDS011;16191;49.548;8.658;2022-12-18T05:08:54;77.90;;;29.65;;
29120;SDS011;16191;49.548;8.658;2022-12-18T05:11:20;90.18;;;32.78;;
29120;SDS011;16191;49.548;8.658;2022-12-18T05:13:47;80.57;;;31.65;;
29120;SDS011;16191;49.548;8.658;2022-12-18T05:16:15;81.25;;;30.60;;
29120;SDS011;16191;49.548;8.658;2022-12-18T05:18:42;76.20;;;28.67;;
29120;SDS011;16191;49.548;8.658;2022-12-18T05:21:09;80.00;;;31.52;;
29120;SDS011;16191;49.548;8.658;2022-12-18T05:23:36;82.38;;;31.20;;
29120;SDS011;16191;49.548;8.658;2022-12-18T05:26:04;88.40;;;32.88;;
29120;SDS011;16191;49.548;8.658;2022-12-18T05:28:32;84.78;;;31.10;;
29120;SDS011;16191;49.548;8.658;2022-12-18T05:31:01;79.65;;;33.03;;
29120;SDS011;16191;49.548;8.658;2022-12-18T05:33:30;83.32;;;32.78;;
29120;SDS011;16191;49.548;8.658;2022-12-18T05:35:59;83.20;;;32.28;;
29120;SDS011;16191;49.548;8.658;2022-12-18T05:38:32;87.45;;;33.45;;
29120;SDS011;16191;49.548;8.658;2022-12-18T05:41:00;88.90;;;31.88;;
29120;SDS011;16191;49.548;8.658;2022-12-18T05:43:27;91.68;;;35.05;;
29120;SDS011;16191;49.548;8.658;2022-12-18T05:45:54;93.38;;;33.65;;
29120;SDS011;16191;49.548;8.658;2022-12-18T05:50:51;95.68;;;33.60;;
29120;SDS011;16191;49.548;8.658;2022-12-18T05:53:19;78.07;;;30.98;;
29120;SDS011;16191;49.548;8.658;2022-12-18T05:55:46;87.05;;;32.90;;
29120;SDS011;16191;49.548;8.658;2022-12-18T05:58:14;88.55;;;33.80;;
29120;SDS011;16191;49.548;8.658;2022-12-18T06:00:43;100.45;;;32.65;;
29120;SDS011;16191;49.548;8.658;2022-12-18T06:03:11;90.60;;;34.13;;
29120;SDS011;16191;49.548;8.658;2022-12-18T06:05:43;89.32;;;33.85;;
29120;SDS011;16191;49.548;8.658;2022-12-18T06:08:11;79.88;;;31.20;;
29120;SDS011;16191;49.548;8.658;2022-12-18T06:10:38;91.22;;;31.80;;
29120;SDS011;16191;49.548;8.658;2022-12-18T06:13:06;88.10;;;32.08;;
29120;SDS011;16191;49.548;8.658;2022-12-18T06:15:35;95.30;;;34.67;;
29120;SDS011;16191;49.548;8.658;2022-12-18T06:18:03;98.10;;;34.25;;
29120;SDS011;16191;49.548;8.658;2022-12-18T06:20:30;84.53;;;32.88;;
29120;SDS011;16191;49.548;8.658;2022-12-18T06:22:59;102.13;;;35.35;;
29120;SDS011;16191;49.548;8.658;2022-12-18T06:25:26;95.65;;;34.80;;
29120;SDS011;16191;49.548;8.658;2022-12-18T06:27:53;98.95;;;34.85;;
29120;SDS011;16191;49.548;8.658;2022-12-18T06:30:20;98.72;;;34.97;;
29120;SDS011;16191;49.548;8.658;2022-12-18T06:32:47;177.63;;;35.65;;
29120;SDS011;16191;49.548;8.658;2022-12-18T06:35:21;161.02;;;37.30;;
29120;SDS011;16191;49.548;8.658;2022-12-18T06:37:48;101.28;;;35.17;;
29120;SDS011;16191;49.548;8.658;2022-12-18T06:40:14;111.28;;;35.97;;
29120;SDS011;16191;49.548;8.658;2022-12-18T06:42:41;114.13;;;31.73;;
29120;SDS011;16191;49.548;8.658;2022-12-18T06:45:08;94.03;;;31.38;;
29120;SDS011;16191;49.548;8.658;2022-12-18T06:47:35;93.28;;;33.70;;
29120;SDS011;16191;49.548;8.658;2022-12-18T06:50:02;89.40;;;34.10;;
29120;SDS011;16191;49.548;8.658;2022-12-18T06:52:31;90.95;;;32.38;;
29120;SDS011;16191;49.548;8.658;2022-12-18T06:54:58;72.43;;;24.00;;
29120;SDS011;16191;49.548;8.658;2022-12-18T06:57:25;108.28;;;31.42;;
29120;SDS011;16191;49.548;8.658;2022-12-18T06:59:51;83.82;;;31.83;;
29120;SDS011;16191;49.548;8.658;2022-12-18T07:02:18;82.43;;;32.58;;
29120;SDS011;16191;49.548;8.658;2022-12-18T07:04:45;102.85;;;32.55;;
29120;SDS011;16191;49.548;8.658;2022-12-18T07:07:11;98.32;;;33.20;;
29120;SDS011;16191;49.548;8.658;2022-12-18T07:09:38;95.65;;;31.67;;
29120;SDS011;16191;49.548;8.658;2022-12-18T07:12:05;79.38;;;31.38;;
29120;SDS011;16191;49.548;8.658;2022-12-18T07:14:33;77.82;;;29.15;;
29120;SDS011;16191;49.548;8.658;2022-12-18T07:17:00;86.95;;;32.45;;
29120;SDS011;16191;49.548;8.658;2022-12-18T07:19:27;80.05;;;30.33;;
29120;SDS011;16191;49.548;8.658;2022-12-18T07:21:55;71.57;;;28.30;;
29120;SDS011;16191;49.548;8.658;2022-12-18T07:24:21;119.32;;;34.10;;
29120;SDS011;16191;49.548;8.658;2022-12-18T07:26:48;132.32;;;31.50;;
29120;SDS011;16191;49.548;8.658;2022-12-18T07:29:14;95.18;;;29.58;;
29120;SDS011;16191;49.548;8.658;2022-12-18T07:31:41;213.70;;;30.63;;
29120;SDS011;16191;49.548;8.658;2022-12-18T07:34:11;74.50;;;28.75;;
29120;SDS011;16191;49.548;8.658;2022-12-18T07:36:39;93.88;;;30.17;;
29120;SDS011;16191;49.548;8.658;2022-12-18T07:39:05;103.40;;;33.05;;
29120;SDS011;16191;49.548;8.658;2022-12-18T07:41:32;89.95;;;30.95;;
29120;SDS011;16191;49.548;8.658;2022-12-18T07:44:09;97.97;;;32.03;;
29120;SDS011;16191;49.548;8.658;2022-12-18T07:46:36;76.77;;;29.93;;
29120;SDS011;16191;49.548;8.658;2022-12-18T07:49:04;88.07;;;30.23;;
29120;SDS011;16191;49.548;8.658;2022-12-18T07:51:31;71.93;;;29.73;;
29120;SDS011;16191;49.548;8.658;2022-12-18T07:53:57;74.38;;;28.38;;
29120;SDS011;16191;49.548;8.658;2022-12-18T07:56:23;84.75;;;30.70;;
29120;SDS011;16191;49.548;8.658;2022-12-18T07:58:54;90.70;;;33.03;;
29120;SDS011;16191;49.548;8.658;2022-12-18T08:01:20;76.95;;;28.73;;
29120;SDS011;16191;49.548;8.658;2022-12-18T08:03:47;87.57;;;31.83;;
29120;SDS011;16191;49.548;8.658;2022-12-18T08:06:17;74.28;;;29.63;;
29120;SDS011;16191;49.548;8.658;2022-12-18T08:08:44;91.13;;;32.13;;
29120;SDS011;16191;49.548;8.658;2022-12-18T08:11:10;76.45;;;32.42;;
29120;SDS011;16191;49.548;8.658;2022-12-18T08:13:37;79.85;;;31.45;;
29120;SDS011;16191;49.548;8.658;2022-12-18T08:16:04;78.15;;;30.77;;
29120;SDS011;16191;49.548;8.658;2022-12-18T08:18:33;82.55;;;31.15;;
29120;SDS011;16191;49.548;8.658;2022-12-18T08:21:08;85.88;;;33.08;;
29120;SDS011;16191;49.548;8.658;2022-12-18T08:23:35;77.80;;;30.48;;
29120;SDS011;16191;49.548;8.658;2022-12-18T08:26:08;84.63;;;32.47;;
29120;SDS011;16191;49.548;8.658;2022-12-18T08:28:35;77.15;;;30.52;;
29120;SDS011;16191;49.548;8.658;2022-12-18T08:31:02;81.00;;;29.92;;
29120;SDS011;16191;49.548;8.658;2022-12-18T08:33:29;85.22;;;31.20;;
29120;SDS011;16191;49.548;8.658;2022-12-18T08:35:55;83.40;;;32.97;;
29120;SDS011;16191;49.548;8.658;2022-12-18T08:38:22;77.05;;;30.15;;
29120;SDS011;16191;49.548;8.658;2022-12-18T08:40:49;85.47;;;33.35;;
29120;SDS011;16191;49.548;8.658;2022-12-18T08:43:15;92.63;;;33.60;;
29120;SDS011;16191;49.548;8.658;2022-12-18T08:46:01;95.40;;;33.78;;
29120;SDS011;16191;49.548;8.658;2022-12-18T08:48:27;93.40;;;35.00;;
29120;SDS011;16191;49.548;8.658;2022-12-18T08:50:55;100.55;;;36.55;;
29120;SDS011;16191;49.548;8.658;2022-12-18T08:53:25;99.65;;;35.67;;
29120;SDS011;16191;49.548;8.658;2022-12-18T08:55:59;90.60;;;34.63;;
29120;SDS011;16191;49.548;8.658;2022-12-18T08:58:26;104.85;;;36.70;;
29120;SDS011;16191;49.548;8.658;2022-12-18T09:00:53;109.85;;;36.15;;
29120;SDS011;16191;49.548;8.658;2022-12-18T09:03:19;85.70;;;33.90;;
29120;SDS011;16191;49.548;8.658;2022-12-18T09:05:48;88.20;;;35.08;;
29120;SDS011;16191;49.548;8.658;2022-12-18T09:08:15;90.47;;;35.67;;
29120;SDS011;16191;49.548;8.658;2022-12-18T09:10:42;96.70;;;36.70;;
29120;SDS011;16191;49.548;8.658;2022-12-18T09:13:11;100.68;;;36.80;;
29120;SDS011;16191;49.548;8.658;2022-12-18T09:15:41;95.07;;;37.67;;
29120;SDS011;16191;49.548;8.658;2022-12-18T09:18:09;87.72;;;34.08;;
29120;SDS011;16191;49.548;8.658;2022-12-18T09:20:36;93.55;;;37.25;;
29120;SDS011;16191;49.548;8.658;2022-12-18T09:23:03;93.90;;;37.78;;
29120;SDS011;16191;49.548;8.658;2022-12-18T09:25:30;93.43;;;37.88;;
29120;SDS011;16191;49.548;8.658;2022-12-18T09:28:02;95.38;;;36.33;;
29120;SDS011;16191;49.548;8.658;2022-12-18T09:30:32;100.18;;;38.92;;
29120;SDS011;16191;49.548;8.658;2022-12-18T09:33:01;93.32;;;37.33;;
29120;SDS011;16191;49.548;8.658;2022-12-18T09:35:27;96.07;;;37.28;;
29120;SDS011;16191;49.548;8.658;2022-12-18T09:37:54;105.90;;;39.30;;
29120;SDS011;16191;49.548;8.658;2022-12-18T09:40:22;93.95;;;38.67;;
29120;SDS011;16191;49.548;8.658;2022-12-18T09:42:52;90.72;;;37.40;;
29120;SDS011;16191;49.548;8.658;2022-12-18T09:45:23;92.95;;;38.03;;
29120;SDS011;16191;49.548;8.658;2022-12-18T09:47:50;95.35;;;37.78;;
29120;SDS011;16191;49.548;8.658;2022-12-18T09:50:25;86.05;;;37.45;;
29120;SDS011;16191;49.548;8.658;2022-12-18T09:52:57;90.80;;;39.28;;
29120;SDS011;16191;49.548;8.658;2022-12-18T09:55:33;90.13;;;37.63;;
29120;SDS011;16191;49.548;8.658;2022-12-18T10:00:36;90.07;;;37.08;;
29120;SDS011;16191;49.548;8.658;2022-12-18T10:03:12;87.03;;;35.65;;
29120;SDS011;16191;49.548;8.658;2022-12-18T10:08:36;86.00;;;36.25;;
29120;SDS011;16191;49.548;8.658;2022-12-18T10:11:26;76.88;;;33.13;;
29120;SDS011;16191;49.548;8.658;2022-12-18T10:16:55;75.43;;;32.90;;
29120;SDS011;16191;49.548;8.658;2022-12-18T10:25:02;80.13;;;34.70;;
29120;SDS011;16191;49.548;8.658;2022-12-18T10:27:36;82.32;;;33.80;;
29120;SDS011;16191;49.548;8.658;2022-12-18T10:30:04;78.90;;;33.60;;
29120;SDS011;16191;49.548;8.658;2022-12-18T10:32:47;80.13;;;34.05;;
29120;SDS011;16191;49.548;8.658;2022-12-18T10:35:21;78.40;;;35.40;;
29120;SDS011;16191;49.548;8.658;2022-12-18T10:37:59;73.38;;;32.70;;
29120;SDS011;16191;49.548;8.658;2022-12-18T10:40:27;79.65;;;35.08;;
29120;SDS011;16191;49.548;8.658;2022-12-18T10:43:12;81.18;;;35.55;;
29120;SDS011;16191;49.548;8.658;2022-12-18T10:45:41;77.43;;;32.85;;
29120;SDS011;16191;49.548;8.658;2022-12-18T10:48:18;71.72;;;33.97;;
29120;SDS011;16191;49.548;8.658;2022-12-18T10:50:49;79.60;;;32.97;;
29120;SDS011;16191;49.548;8.658;2022-12-18T10:53:38;80.20;;;32.27;;
29120;SDS011;16191;49.548;8.658;2022-12-18T10:56:08;75.85;;;34.15;;
29120;SDS011;16191;49.548;8.658;2022-12-18T10:58:36;78.43;;;32.78;;
29120;SDS011;16191;49.548;8.658;2022-12-18T11:01:05;78.60;;;34.85;;
29120;SDS011;16191;49.548;8.658;2022-12-18T11:03:36;76.60;;;34.97;;
29120;SDS011;16191;49.548;8.658;2022-12-18T11:06:28;79.78;;;34.78;;
29120;SDS011;16191;49.548;8.658;2022-12-18T11:11:36;75.65;;;34.35;;
29120;SDS011;16191;49.548;8.658;2022-12-18T11:14:04;69.95;;;33.20;;
29120;SDS011;16191;49.548;8.658;2022-12-18T11:16:34;77.20;;;34.78;;
29120;SDS011;16191;49.548;8.658;2022-12-18T11:19:38;70.25;;;31.35;;
29120;SDS011;16191;49.548;8.658;2022-12-18T11:25:18;70.13;;;33.08;;
29120;SDS011;16191;49.548;8.658;2022-12-18T11:28:00;72.65;;;33.42;;
29120;SDS011;16191;49.548;8.658;2022-12-18T11:30:30;73.18;;;33.35;;
29120;SDS011;16191;49.548;8.658;2022-12-18T11:36:01;72.70;;;32.42;;
29120;SDS011;16191;49.548;8.658;2022-12-18T11:38:30;67.38;;;33.58;;
29120;SDS011;16191;49.548;8.658;2022-12-18T11:41:05;78.03;;;35.03;;
29120;SDS011;16191;49.548;8.658;2022-12-18T11:46:39;79.50;;;36.25;;
29120;SDS011;16191;49.548;8.658;2022-12-18T11:51:49;70.50;;;32.78;;
29120;SDS011;16191;49.548;8.658;2022-12-18T11:54:21;75.63;;;32.72;;
29120;SDS011;16191;49.548;8.658;2022-12-18T11:59:21;78.25;;;35.10;;
29120;SDS011;16191;49.548;8.658;2022-12-18T12:02:33;79.43;;;36.28;;
29120;SDS011;16191;49.548;8.658;2022-12-18T12:05:17;77.13;;;36.63;;
29120;SDS011;16191;49.548;8.658;2022-12-18T12:07:50;69.47;;;33.20;;
29120;SDS011;16191;49.548;8.658;2022-12-18T12:13:39;75.75;;;35.28;;
29120;SDS011;16191;49.548;8.658;2022-12-18T12:16:24;80.28;;;34.15;;
29120;SDS011;16191;49.548;8.658;2022-12-18T12:19:02;71.35;;;32.78;;
29120;SDS011;16191;49.548;8.658;2022-12-18T12:21:35;75.60;;;35.05;;
29120;SDS011;16191;49.548;8.658;2022-12-18T12:30:07;79.05;;;36.72;;
29120;SDS011;16191;49.548;8.658;2022-12-18T12:35:38;75.40;;;34.42;;
29120;SDS011;16191;49.548;8.658;2022-12-18T12:38:16;77.70;;;35.00;;
29120;SDS011;16191;49.548;8.658;2022-12-18T12:40:58;78.50;;;35.70;;
29120;SDS011;16191;49.548;8.658;2022-12-18T12:46:17;82.70;;;36.33;;
29120;SDS011;16191;49.548;8.658;2022-12-18T12:51:21;81.78;;;37.10;;
29120;SDS011;16191;49.548;8.658;2022-12-18T12:53:52;79.38;;;37.25;;
29120;SDS011;16191;49.548;8.658;2022-12-18T12:56:20;81.68;;;36.45;;
29120;SDS011;16191;49.548;8.658;2022-12-18T13:04:08;83.15;;;36.53;;
29120;SDS011;16191;49.548;8.658;2022-12-18T13:06:44;86.70;;;40.08;;
29120;SDS011;16191;49.548;8.658;2022-12-18T13:09:17;80.72;;;37.15;;
29120;SDS011;16191;49.548;8.658;2022-12-18T13:11:45;81.97;;;38.25;;
29120;SDS011;16191;49.548;8.658;2022-12-18T13:14:33;80.85;;;37.15;;
29120;SDS011;16191;49.548;8.658;2022-12-18T13:19:50;92.97;;;38.08;;
29120;SDS011;16191;49.548;8.658;2022-12-18T13:22:22;93.82;;;39.95;;
29120;SDS011;16191;49.548;8.658;2022-12-18T13:24:54;88.22;;;39.72;;
29120;SDS011;16191;49.548;8.658;2022-12-18T13:27:45;90.82;;;40.00;;
29120;SDS011;16191;49.548;8.658;2022-12-18T13:33:45;85.53;;;38.03;;
29120;SDS011;16191;49.548;8.658;2022-12-18T13:36:00;82.03;;;39.88;;
29120;SDS011;16191;49.548;8.658;2022-12-18T13:41:04;94.45;;;39.55;;
29120;SDS011;16191;49.548;8.658;2022-12-18T13:43:53;88.90;;;40.10;;
29120;SDS011;16191;49.548;8.658;2022-12-18T13:46:28;83.03;;;39.38;;
29120;SDS011;16191;49.548;8.658;2022-12-18T13:49:01;86.97;;;41.05;;
29120;SDS011;16191;49.548;8.658;2022-12-18T13:51:32;83.60;;;39.03;;
29120;SDS011;16191;49.548;8.658;2022-12-18T13:56:53;87.18;;;38.42;;
29120;SDS011;16191;49.548;8.658;2022-12-18T13:59:24;85.00;;;39.67;;
29120;SDS011;16191;49.548;8.658;2022-12-18T14:01:57;84.60;;;38.53;;
29120;SDS011;16191;49.548;8.658;2022-12-18T14:04:29;87.00;;;39.05;;
29120;SDS011;16191;49.548;8.658;2022-12-18T14:07:02;91.03;;;39.90;;
29120;SDS011;16191;49.548;8.658;2022-12-18T14:10:11;82.18;;;35.88;;
29120;SDS011;16191;49.548;8.658;2022-12-18T14:13:03;78.38;;;36.67;;
29120;SDS011;16191;49.548;8.658;2022-12-18T14:20:47;75.50;;;36.65;;
29120;SDS011;16191;49.548;8.658;2022-12-18T14:25:57;82.40;;;36.28;;
29120;SDS011;16191;49.548;8.658;2022-12-18T14:28:31;74.40;;;35.10;;
29120;SDS011;16191;49.548;8.658;2022-12-18T14:30:58;77.10;;;36.25;;
29120;SDS011;16191;49.548;8.658;2022-12-18T14:33:25;83.70;;;38.40;;
29120;SDS011;16191;49.548;8.658;2022-12-18T14:35:58;85.57;;;38.45;;
29120;SDS011;16191;49.548;8.658;2022-12-18T14:38:31;79.35;;;34.00;;
29120;SDS011;16191;49.548;8.658;2022-12-18T14:41:15;84.15;;;36.70;;
29120;SDS011;16191;49.548;8.658;2022-12-18T14:43:44;80.35;;;37.05;;
29120;SDS011;16191;49.548;8.658;2022-12-18T14:48:54;75.88;;;37.03;;
29120;SDS011;16191;49.548;8.658;2022-12-18T14:51:22;83.50;;;38.40;;
29120;SDS011;16191;49.548;8.658;2022-12-18T14:53:54;76.37;;;35.57;;
29120;SDS011;16191;49.548;8.658;2022-12-18T14:56:25;84.90;;;37.90;;
29120;SDS011;16191;49.548;8.658;2022-12-18T14:58:57;86.20;;;39.03;;
29120;SDS011;16191;49.548;8.658;2022-12-18T15:01:29;77.25;;;36.15;;
29120;SDS011;16191;49.548;8.658;2022-12-18T15:04:00;85.15;;;37.47;;
29120;SDS011;16191;49.548;8.658;2022-12-18T15:06:32;90.90;;;39.45;;
29120;SDS011;16191;49.548;8.658;2022-12-18T15:09:05;84.90;;;37.83;;
29120;SDS011;16191;49.548;8.658;2022-12-18T15:11:48;94.88;;;40.38;;
29120;SDS011;16191;49.548;8.658;2022-12-18T15:14:49;89.10;;;41.17;;
29120;SDS011;16191;49.548;8.658;2022-12-18T15:17:19;86.35;;;37.90;;
29120;SDS011;16191;49.548;8.658;2022-12-18T15:19:50;96.90;;;43.65;;
29120;SDS011;16191;49.548;8.658;2022-12-18T15:22:21;99.95;;;41.55;;
29120;SDS011;16191;49.548;8.658;2022-12-18T15:24:55;91.32;;;39.58;;
29120;SDS011;16191;49.548;8.658;2022-12-18T15:27:26;89.75;;;38.97;;
29120;SDS011;16191;49.548;8.658;2022-12-18T15:30:29;90.10;;;40.88;;
29120;SDS011;16191;49.548;8.658;2022-12-18T15:32:50;92.53;;;41.38;;
29120;SDS011;16191;49.548;8.658;2022-12-18T15:35:22;92.40;;;41.33;;
29120;SDS011;16191;49.548;8.658;2022-12-18T15:37:51;100.35;;;43.63;;
29120;SDS011;16191;49.548;8.658;2022-12-18T15:40:19;99.88;;;43.88;;
29120;SDS011;16191;49.548;8.658;2022-12-18T15:42:49;101.32;;;44.15;;
29120;SDS011;16191;49.548;8.658;2022-12-18T15:45:38;111.32;;;46.03;;
29120;SDS011;16191;49.548;8.658;2022-12-18T15:48:40;106.47;;;47.20;;
29120;SDS011;16191;49.548;8.658;2022-12-18T15:53:58;107.90;;;46.78;;
29120;SDS011;16191;49.548;8.658;2022-12-18T15:56:27;118.50;;;49.00;;
29120;SDS011;16191;49.548;8.658;2022-12-18T15:59:17;110.85;;;45.25;;
29120;SDS011;16191;49.548;8.658;2022-12-18T16:01:46;99.93;;;44.33;;
29120;SDS011;16191;49.548;8.658;2022-12-18T16:04:14;104.05;;;44.03;;
29120;SDS011;16191;49.548;8.658;2022-12-18T16:06:42;103.57;;;46.60;;
29120;SDS011;16191;49.548;8.658;2022-12-18T16:09:29;117.88;;;47.92;;
29120;SDS011;16191;49.548;8.658;2022-12-18T16:11:55;110.65;;;46.30;;
29120;SDS011;16191;49.548;8.658;2022-12-18T16:19:29;110.03;;;44.97;;
29120;SDS011;16191;49.548;8.658;2022-12-18T16:21:56;119.05;;;48.55;;
29120;SDS011;16191;49.548;8.658;2022-12-18T16:24:28;125.55;;;46.28;;
29120;SDS011;16191;49.548;8.658;2022-12-18T16:26:57;114.20;;;47.38;;
29120;SDS011;16191;49.548;8.658;2022-12-18T16:29:26;105.28;;;44.95;;